sensor_id;sensor_type;location;lat;lon;timestamp;temperature;humidity
46652;DHT22;32377;52.182;5.398;2023-02-15T00:00:30;3.20;99.90
46652;DHT22;32377;52.182;5.398;2023-02-15T00:02:55;3.10;99.90
46652;DHT22;32377;52.182;5.398;2023-02-15T00:05:21;3.10;99.90
46652;DHT22;32377;52.182;5.398;2023-02-15T00:07:46;3.10;99.90
46652;DHT22;32377;52.182;5.398;2023-02-15T00:10:12;3.10;99.90
46652;DHT22;32377;52.182;5.398;2023-02-15T00:12:37;3.10;99.90
46652;DHT22;32377;52.182;5.398;2023-02-15T00:15:03;3.10;99.90
46652;DHT22;32377;52.182;5.398;2023-02-15T00:17:29;3.10;99.90
46652;DHT22;32377;52.182;5.398;2023-02-15T00:19:55;3.10;99.90
46652;DHT22;32377;52.182;5.398;2023-02-15T00:22:20;3.00;99.90
46652;DHT22;32377;52.182;5.398;2023-02-15T00:24:46;3.10;99.90
46652;DHT22;32377;52.182;5.398;2023-02-15T00:27:11;3.10;99.90
46652;DHT22;32377;52.182;5.398;2023-02-15T00:29:37;3.10;99.90
46652;DHT22;32377;52.182;5.398;2023-02-15T00:32:03;3.00;99.90
46652;DHT22;32377;52.182;5.398;2023-02-15T00:34:28;3.00;99.90
46652;DHT22;32377;52.182;5.398;2023-02-15T00:36:54;3.00;99.90
46652;DHT22;32377;52.182;5.398;2023-02-15T00:39:20;3.00;99.90
46652;DHT22;32377;52.182;5.398;2023-02-15T00:41:46;3.00;99.90
46652;DHT22;32377;52.182;5.398;2023-02-15T00:44:13;2.90;99.90
46652;DHT22;32377;52.182;5.398;2023-02-15T00:46:39;2.80;99.90
46652;DHT22;32377;52.182;5.398;2023-02-15T00:49:05;2.80;99.90
46652;DHT22;32377;52.182;5.398;2023-02-15T00:51:31;2.90;99.90
46652;DHT22;32377;52.182;5.398;2023-02-15T00:53:57;2.80;99.90
46652;DHT22;32377;52.182;5.398;2023-02-15T00:56:22;2.90;99.90
46652;DHT22;32377;52.182;5.398;2023-02-15T00:58:48;2.90;99.90
46652;DHT22;32377;52.182;5.398;2023-02-15T01:01:18;2.90;99.90
46652;DHT22;32377;52.182;5.398;2023-02-15T01:03:44;2.90;99.90
46652;DHT22;32377;52.182;5.398;2023-02-15T01:06:12;2.90;99.90
46652;DHT22;32377;52.182;5.398;2023-02-15T01:08:38;2.80;99.90
46652;DHT22;32377;52.182;5.398;2023-02-15T01:11:17;2.80;99.90
46652;DHT22;32377;52.182;5.398;2023-02-15T01:13:49;2.80;99.90
46652;DHT22;32377;52.182;5.398;2023-02-15T01:16:15;2.80;99.90
46652;DHT22;32377;52.182;5.398;2023-02-15T01:18:40;2.80;99.90
46652;DHT22;32377;52.182;5.398;2023-02-15T01:21:18;2.70;99.90
46652;DHT22;32377;52.182;5.398;2023-02-15T01:23:44;2.70;99.90
46652;DHT22;32377;52.182;5.398;2023-02-15T01:26:10;2.70;99.90
46652;DHT22;32377;52.182;5.398;2023-02-15T01:28:36;2.70;99.90
46652;DHT22;32377;52.182;5.398;2023-02-15T01:31:11;2.60;99.90
46652;DHT22;32377;52.182;5.398;2023-02-15T01:33:37;2.60;99.90
46652;DHT22;32377;52.182;5.398;2023-02-15T01:36:03;2.60;99.90
46652;DHT22;32377;52.182;5.398;2023-02-15T01:38:29;2.60;99.90
46652;DHT22;32377;52.182;5.398;2023-02-15T01:40:55;2.60;99.90
46652;DHT22;32377;52.182;5.398;2023-02-15T01:43:46;2.50;99.90
46652;DHT22;32377;52.182;5.398;2023-02-15T01:46:14;2.50;99.90
46652;DHT22;32377;52.182;5.398;2023-02-15T01:48:47;2.50;99.90
46652;DHT22;32377;52.182;5.398;2023-02-15T01:51:15;2.50;99.90
46652;DHT22;32377;52.182;5.398;2023-02-15T01:53:54;2.50;99.90
46652;DHT22;32377;52.182;5.398;2023-02-15T01:56:24;2.40;99.90
46652;DHT22;32377;52.182;5.398;2023-02-15T01:58:54;2.40;99.90
46652;DHT22;32377;52.182;5.398;2023-02-15T02:01:21;2.50;99.90
46652;DHT22;32377;52.182;5.398;2023-02-15T02:03:58;2.50;99.90
46652;DHT22;32377;52.182;5.398;2023-02-15T02:06:25;2.50;99.90
46652;DHT22;32377;52.182;5.398;2023-02-15T02:08:53;2.40;99.90
46652;DHT22;32377;52.182;5.398;2023-02-15T02:11:19;2.40;99.90
46652;DHT22;32377;52.182;5.398;2023-02-15T02:13:45;2.40;99.90
46652;DHT22;32377;52.182;5.398;2023-02-15T02:16:22;2.30;99.90
46652;DHT22;32377;52.182;5.398;2023-02-15T02:22:13;2.30;99.90
46652;DHT22;32377;52.182;5.398;2023-02-15T02:24:59;2.30;99.90
46652;DHT22;32377;52.182;5.398;2023-02-15T02:30:41;2.30;99.90
46652;DHT22;32377;52.182;5.398;2023-02-15T02:33:36;2.30;99.90
46652;DHT22;32377;52.182;5.398;2023-02-15T02:41:28;2.20;99.90
46652;DHT22;32377;52.182;5.398;2023-02-15T02:44:07;2.30;99.90
46652;DHT22;32377;52.182;5.398;2023-02-15T02:46:52;2.30;99.90
46652;DHT22;32377;52.182;5.398;2023-02-15T02:49:33;2.30;99.90
46652;DHT22;32377;52.182;5.398;2023-02-15T02:52:05;2.30;99.90
46652;DHT22;32377;52.182;5.398;2023-02-15T02:54:31;2.30;99.90
46652;DHT22;32377;52.182;5.398;2023-02-15T02:57:03;2.30;99.90
46652;DHT22;32377;52.182;5.398;2023-02-15T02:59:36;2.30;99.90
46652;DHT22;32377;52.182;5.398;2023-02-15T03:02:28;2.30;99.90
46652;DHT22;32377;52.182;5.398;2023-02-15T03:04:59;2.30;99.90
46652;DHT22;32377;52.182;5.398;2023-02-15T03:07:30;2.20;99.90
46652;DHT22;32377;52.182;5.398;2023-02-15T03:09:58;2.20;99.90
46652;DHT22;32377;52.182;5.398;2023-02-15T03:12:38;2.20;99.90
46652;DHT22;32377;52.182;5.398;2023-02-15T03:15:11;2.20;99.90
46652;DHT22;32377;52.182;5.398;2023-02-15T03:17:43;2.20;99.90
46652;DHT22;32377;52.182;5.398;2023-02-15T03:20:14;2.20;99.90
46652;DHT22;32377;52.182;5.398;2023-02-15T03:22:51;2.10;99.90
46652;DHT22;32377;52.182;5.398;2023-02-15T03:25:28;2.10;99.90
46652;DHT22;32377;52.182;5.398;2023-02-15T03:28:01;2.10;99.90
46652;DHT22;32377;52.182;5.398;2023-02-15T03:30:29;2.10;99.90
46652;DHT22;32377;52.182;5.398;2023-02-15T03:32:56;2.10;99.90
46652;DHT22;32377;52.182;5.398;2023-02-15T03:35:26;2.00;99.90
46652;DHT22;32377;52.182;5.398;2023-02-15T03:38:00;2.00;99.90
46652;DHT22;32377;52.182;5.398;2023-02-15T03:40:46;2.00;99.90
46652;DHT22;32377;52.182;5.398;2023-02-15T03:43:40;2.00;99.90
46652;DHT22;32377;52.182;5.398;2023-02-15T03:49:24;2.00;99.90
46652;DHT22;32377;52.182;5.398;2023-02-15T03:51:52;1.90;99.90
46652;DHT22;32377;52.182;5.398;2023-02-15T03:54:25;1.90;99.90
46652;DHT22;32377;52.182;5.398;2023-02-15T03:57:10;1.90;99.90
46652;DHT22;32377;52.182;5.398;2023-02-15T03:59:54;1.90;99.90
46652;DHT22;32377;52.182;5.398;2023-02-15T04:02:58;1.80;99.90
46652;DHT22;32377;52.182;5.398;2023-02-15T04:05:26;1.90;99.90
46652;DHT22;32377;52.182;5.398;2023-02-15T04:07:52;1.80;99.90
46652;DHT22;32377;52.182;5.398;2023-02-15T04:10:17;1.80;99.90
46652;DHT22;32377;52.182;5.398;2023-02-15T04:13:02;1.70;99.90
46652;DHT22;32377;52.182;5.398;2023-02-15T04:15:27;1.80;99.90
46652;DHT22;32377;52.182;5.398;2023-02-15T04:18:11;1.70;99.90
46652;DHT22;32377;52.182;5.398;2023-02-15T04:20:37;1.70;99.90
46652;DHT22;32377;52.182;5.398;2023-02-15T04:23:21;1.70;99.90
46652;DHT22;32377;52.182;5.398;2023-02-15T04:26:06;1.70;99.90
46652;DHT22;32377;52.182;5.398;2023-02-15T04:28:31;1.70;99.90
46652;DHT22;32377;52.182;5.398;2023-02-15T04:30:57;1.60;99.90
46652;DHT22;32377;52.182;5.398;2023-02-15T04:33:23;1.60;99.90
46652;DHT22;32377;52.182;5.398;2023-02-15T04:35:49;1.60;99.90
46652;DHT22;32377;52.182;5.398;2023-02-15T04:38:14;1.60;99.90
46652;DHT22;32377;52.182;5.398;2023-02-15T04:40:40;1.60;99.90
46652;DHT22;32377;52.182;5.398;2023-02-15T04:43:05;1.70;99.90
46652;DHT22;32377;52.182;5.398;2023-02-15T04:45:31;1.70;99.90
46652;DHT22;32377;52.182;5.398;2023-02-15T04:47:56;1.80;99.90
46652;DHT22;32377;52.182;5.398;2023-02-15T04:50:22;1.80;99.90
46652;DHT22;32377;52.182;5.398;2023-02-15T04:52:47;1.80;99.90
46652;DHT22;32377;52.182;5.398;2023-02-15T04:55:13;1.80;99.90
46652;DHT22;32377;52.182;5.398;2023-02-15T04:59:06;1.90;99.90
46652;DHT22;32377;52.182;5.398;2023-02-15T05:01:32;2.00;99.90
46652;DHT22;32377;52.182;5.398;2023-02-15T05:03:57;2.00;99.90
46652;DHT22;32377;52.182;5.398;2023-02-15T05:06:23;2.00;99.90
46652;DHT22;32377;52.182;5.398;2023-02-15T05:08:48;2.10;99.90
46652;DHT22;32377;52.182;5.398;2023-02-15T05:11:14;2.10;99.90
46652;DHT22;32377;52.182;5.398;2023-02-15T05:13:40;2.20;99.90
46652;DHT22;32377;52.182;5.398;2023-02-15T05:16:05;2.10;99.90
46652;DHT22;32377;52.182;5.398;2023-02-15T05:18:31;2.20;99.90
46652;DHT22;32377;52.182;5.398;2023-02-15T05:20:57;2.10;99.90
46652;DHT22;32377;52.182;5.398;2023-02-15T05:23:22;2.20;99.90
46652;DHT22;32377;52.182;5.398;2023-02-15T05:25:49;2.20;99.90
46652;DHT22;32377;52.182;5.398;2023-02-15T05:28:35;2.10;99.90
46652;DHT22;32377;52.182;5.398;2023-02-15T05:31:12;2.10;99.90
46652;DHT22;32377;52.182;5.398;2023-02-15T05:33:39;2.10;99.90
46652;DHT22;32377;52.182;5.398;2023-02-15T05:36:05;2.00;99.90
46652;DHT22;32377;52.182;5.398;2023-02-15T05:38:31;2.00;99.90
46652;DHT22;32377;52.182;5.398;2023-02-15T05:40:57;2.00;99.90
46652;DHT22;32377;52.182;5.398;2023-02-15T05:43:23;2.00;99.90
46652;DHT22;32377;52.182;5.398;2023-02-15T05:45:52;2.00;99.90
46652;DHT22;32377;52.182;5.398;2023-02-15T05:48:18;2.00;99.90
46652;DHT22;32377;52.182;5.398;2023-02-15T05:50:44;2.00;99.90
46652;DHT22;32377;52.182;5.398;2023-02-15T05:53:10;2.00;99.90
46652;DHT22;32377;52.182;5.398;2023-02-15T05:55:39;1.90;99.90
46652;DHT22;32377;52.182;5.398;2023-02-15T05:58:06;1.90;99.90
46652;DHT22;32377;52.182;5.398;2023-02-15T06:00:31;1.90;99.90
46652;DHT22;32377;52.182;5.398;2023-02-15T06:02:57;1.90;99.90
46652;DHT22;32377;52.182;5.398;2023-02-15T06:05:23;1.90;99.90
46652;DHT22;32377;52.182;5.398;2023-02-15T06:07:48;1.90;99.90
46652;DHT22;32377;52.182;5.398;2023-02-15T06:10:14;1.90;99.90
46652;DHT22;32377;52.182;5.398;2023-02-15T06:12:39;2.00;99.90
46652;DHT22;32377;52.182;5.398;2023-02-15T06:15:05;1.90;99.90
46652;DHT22;32377;52.182;5.398;2023-02-15T06:17:31;2.00;99.90
46652;DHT22;32377;52.182;5.398;2023-02-15T06:19:57;2.00;99.90
46652;DHT22;32377;52.182;5.398;2023-02-15T06:22:22;1.90;99.90
46652;DHT22;32377;52.182;5.398;2023-02-15T06:24:48;2.00;99.90
46652;DHT22;32377;52.182;5.398;2023-02-15T06:27:13;2.00;99.90
46652;DHT22;32377;52.182;5.398;2023-02-15T06:29:39;2.00;99.90
46652;DHT22;32377;52.182;5.398;2023-02-15T06:32:05;1.90;99.90
46652;DHT22;32377;52.182;5.398;2023-02-15T06:34:31;2.00;99.90
46652;DHT22;32377;52.182;5.398;2023-02-15T06:36:57;2.00;99.90
46652;DHT22;32377;52.182;5.398;2023-02-15T06:39:22;1.90;99.90
46652;DHT22;32377;52.182;5.398;2023-02-15T06:41:48;1.90;99.90
46652;DHT22;32377;52.182;5.398;2023-02-15T06:44:14;2.00;99.90
46652;DHT22;32377;52.182;5.398;2023-02-15T06:46:39;1.90;99.90
46652;DHT22;32377;52.182;5.398;2023-02-15T06:49:05;1.90;99.90
46652;DHT22;32377;52.182;5.398;2023-02-15T06:51:30;1.90;99.90
46652;DHT22;32377;52.182;5.398;2023-02-15T06:53:56;1.90;99.90
46652;DHT22;32377;52.182;5.398;2023-02-15T06:56:22;1.90;99.90
46652;DHT22;32377;52.182;5.398;2023-02-15T06:58:47;1.90;99.90
46652;DHT22;32377;52.182;5.398;2023-02-15T07:01:15;1.90;99.90
46652;DHT22;32377;52.182;5.398;2023-02-15T07:03:40;1.80;99.90
46652;DHT22;32377;52.182;5.398;2023-02-15T07:06:06;1.90;99.90
46652;DHT22;32377;52.182;5.398;2023-02-15T07:08:34;1.90;99.90
46652;DHT22;32377;52.182;5.398;2023-02-15T07:11:00;1.80;99.90
46652;DHT22;32377;52.182;5.398;2023-02-15T07:13:44;1.80;99.90
46652;DHT22;32377;52.182;5.398;2023-02-15T07:16:10;1.80;99.90
46652;DHT22;32377;52.182;5.398;2023-02-15T07:18:36;1.90;99.90
46652;DHT22;32377;52.182;5.398;2023-02-15T07:21:02;1.90;99.90
46652;DHT22;32377;52.182;5.398;2023-02-15T07:23:28;1.90;99.90
46652;DHT22;32377;52.182;5.398;2023-02-15T07:25:58;1.90;99.90
46652;DHT22;32377;52.182;5.398;2023-02-15T07:28:24;1.90;99.90
46652;DHT22;32377;52.182;5.398;2023-02-15T07:30:49;2.00;99.90
46652;DHT22;32377;52.182;5.398;2023-02-15T07:33:15;2.00;99.90
46652;DHT22;32377;52.182;5.398;2023-02-15T07:35:57;2.00;99.90
46652;DHT22;32377;52.182;5.398;2023-02-15T07:38:29;2.00;99.90
46652;DHT22;32377;52.182;5.398;2023-02-15T07:40:59;2.10;99.90
46652;DHT22;32377;52.182;5.398;2023-02-15T07:43:25;2.10;99.90
46652;DHT22;32377;52.182;5.398;2023-02-15T07:45:51;2.20;99.90
46652;DHT22;32377;52.182;5.398;2023-02-15T07:48:16;2.30;99.90
46652;DHT22;32377;52.182;5.398;2023-02-15T07:50:42;2.30;99.90
46652;DHT22;32377;52.182;5.398;2023-02-15T07:53:08;2.30;99.90
46652;DHT22;32377;52.182;5.398;2023-02-15T07:55:34;2.30;99.90
46652;DHT22;32377;52.182;5.398;2023-02-15T07:58:00;2.40;99.90
46652;DHT22;32377;52.182;5.398;2023-02-15T08:00:26;2.40;99.90
46652;DHT22;32377;52.182;5.398;2023-02-15T08:02:54;2.40;99.90
46652;DHT22;32377;52.182;5.398;2023-02-15T08:05:39;2.50;99.90
46652;DHT22;32377;52.182;5.398;2023-02-15T08:08:06;2.50;99.90
46652;DHT22;32377;52.182;5.398;2023-02-15T08:10:32;2.60;99.90
46652;DHT22;32377;52.182;5.398;2023-02-15T08:13:16;2.60;99.90
46652;DHT22;32377;52.182;5.398;2023-02-15T08:15:51;2.70;99.90
46652;DHT22;32377;52.182;5.398;2023-02-15T08:18:16;2.70;99.90
46652;DHT22;32377;52.182;5.398;2023-02-15T08:20:42;2.80;99.90
46652;DHT22;32377;52.182;5.398;2023-02-15T08:23:08;2.80;99.90
46652;DHT22;32377;52.182;5.398;2023-02-15T08:25:34;2.90;99.90
46652;DHT22;32377;52.182;5.398;2023-02-15T08:27:59;3.00;99.90
46652;DHT22;32377;52.182;5.398;2023-02-15T08:30:25;3.00;99.90
46652;DHT22;32377;52.182;5.398;2023-02-15T08:32:50;3.10;99.90
46652;DHT22;32377;52.182;5.398;2023-02-15T08:35:16;3.20;99.90
46652;DHT22;32377;52.182;5.398;2023-02-15T08:37:42;3.30;99.90
46652;DHT22;32377;52.182;5.398;2023-02-15T08:40:08;3.30;99.90
46652;DHT22;32377;52.182;5.398;2023-02-15T08:42:34;3.30;99.90
46652;DHT22;32377;52.182;5.398;2023-02-15T08:44:59;3.30;99.90
46652;DHT22;32377;52.182;5.398;2023-02-15T08:47:25;3.50;99.90
46652;DHT22;32377;52.182;5.398;2023-02-15T08:49:50;3.50;99.90
46652;DHT22;32377;52.182;5.398;2023-02-15T08:52:16;3.60;99.90
46652;DHT22;32377;52.182;5.398;2023-02-15T08:54:42;3.70;99.90
46652;DHT22;32377;52.182;5.398;2023-02-15T08:57:08;3.80;99.90
46652;DHT22;32377;52.182;5.398;2023-02-15T08:59:35;3.90;99.90
46652;DHT22;32377;52.182;5.398;2023-02-15T09:02:01;3.90;99.90
46652;DHT22;32377;52.182;5.398;2023-02-15T09:04:26;4.00;99.90
46652;DHT22;32377;52.182;5.398;2023-02-15T09:06:55;4.00;99.90
46652;DHT22;32377;52.182;5.398;2023-02-15T09:09:21;4.10;99.90
46652;DHT22;32377;52.182;5.398;2023-02-15T09:11:49;4.20;99.90
46652;DHT22;32377;52.182;5.398;2023-02-15T09:14:19;4.30;99.90
46652;DHT22;32377;52.182;5.398;2023-02-15T09:16:47;4.40;99.90
46652;DHT22;32377;52.182;5.398;2023-02-15T09:19:15;4.40;99.90
46652;DHT22;32377;52.182;5.398;2023-02-15T09:21:41;4.50;99.90
46652;DHT22;32377;52.182;5.398;2023-02-15T09:24:09;4.50;99.90
46652;DHT22;32377;52.182;5.398;2023-02-15T09:26:37;4.60;99.90
46652;DHT22;32377;52.182;5.398;2023-02-15T09:29:04;4.60;99.90
46652;DHT22;32377;52.182;5.398;2023-02-15T09:31:37;4.70;99.90
46652;DHT22;32377;52.182;5.398;2023-02-15T09:34:03;4.80;99.90
46652;DHT22;32377;52.182;5.398;2023-02-15T09:36:34;4.90;99.90
46652;DHT22;32377;52.182;5.398;2023-02-15T09:39:21;4.90;99.90
46652;DHT22;32377;52.182;5.398;2023-02-15T09:56:18;5.40;99.90
46652;DHT22;32377;52.182;5.398;2023-02-15T10:01:30;5.60;99.90
46652;DHT22;32377;52.182;5.398;2023-02-15T10:14:50;6.20;99.90
46652;DHT22;32377;52.182;5.398;2023-02-15T10:23:15;6.40;99.90
46652;DHT22;32377;52.182;5.398;2023-02-15T10:26:07;6.50;99.90
46652;DHT22;32377;52.182;5.398;2023-02-15T10:31:26;6.80;99.90
46652;DHT22;32377;52.182;5.398;2023-02-15T10:39:44;7.00;99.90
46652;DHT22;32377;52.182;5.398;2023-02-15T11:01:52;7.70;99.90
46652;DHT22;32377;52.182;5.398;2023-02-15T11:04:45;7.80;99.90
46652;DHT22;32377;52.182;5.398;2023-02-15T11:10:26;8.10;99.90
46652;DHT22;32377;52.182;5.398;2023-02-15T11:12:55;8.20;99.90
46652;DHT22;32377;52.182;5.398;2023-02-15T11:15:55;8.30;99.90
46652;DHT22;32377;52.182;5.398;2023-02-15T11:18:27;8.40;99.90
46652;DHT22;32377;52.182;5.398;2023-02-15T11:23:44;8.50;99.90
46652;DHT22;32377;52.182;5.398;2023-02-15T11:26:19;8.60;99.90
46652;DHT22;32377;52.182;5.398;2023-02-15T11:28:57;8.70;99.90
46652;DHT22;32377;52.182;5.398;2023-02-15T11:31:26;8.80;99.90
46652;DHT22;32377;52.182;5.398;2023-02-15T11:34:00;8.90;99.90
46652;DHT22;32377;52.182;5.398;2023-02-15T11:36:32;9.00;99.90
46652;DHT22;32377;52.182;5.398;2023-02-15T11:39:03;9.10;99.90
46652;DHT22;32377;52.182;5.398;2023-02-15T11:41:33;9.20;99.90
46652;DHT22;32377;52.182;5.398;2023-02-15T11:44:10;9.40;99.90
46652;DHT22;32377;52.182;5.398;2023-02-15T11:46:37;9.50;99.90
46652;DHT22;32377;52.182;5.398;2023-02-15T11:49:19;9.50;99.90
46652;DHT22;32377;52.182;5.398;2023-02-15T11:51:46;9.60;99.90
46652;DHT22;32377;52.182;5.398;2023-02-15T11:54:11;9.70;99.90
46652;DHT22;32377;52.182;5.398;2023-02-15T11:56:37;9.70;99.90
46652;DHT22;32377;52.182;5.398;2023-02-15T11:59:10;9.80;99.90
46652;DHT22;32377;52.182;5.398;2023-02-15T12:01:39;9.90;99.90
46652;DHT22;32377;52.182;5.398;2023-02-15T12:04:39;9.90;99.90
46652;DHT22;32377;52.182;5.398;2023-02-15T12:10:00;10.30;99.90
46652;DHT22;32377;52.182;5.398;2023-02-15T12:12:32;10.30;99.90
46652;DHT22;32377;52.182;5.398;2023-02-15T12:14:59;10.40;99.90
46652;DHT22;32377;52.182;5.398;2023-02-15T12:17:31;10.50;99.90
46652;DHT22;32377;52.182;5.398;2023-02-15T12:20:01;10.70;99.90
46652;DHT22;32377;52.182;5.398;2023-02-15T12:22:30;10.80;99.90
46652;DHT22;32377;52.182;5.398;2023-02-15T12:24:59;10.80;99.90
46652;DHT22;32377;52.182;5.398;2023-02-15T12:27:28;10.80;99.90
46652;DHT22;32377;52.182;5.398;2023-02-15T12:30:10;11.00;99.90
46652;DHT22;32377;52.182;5.398;2023-02-15T12:33:16;11.00;99.90
46652;DHT22;32377;52.182;5.398;2023-02-15T12:35:43;11.10;99.90
46652;DHT22;32377;52.182;5.398;2023-02-15T12:40:34;11.20;99.90
46652;DHT22;32377;52.182;5.398;2023-02-15T12:43:01;11.30;99.90
46652;DHT22;32377;52.182;5.398;2023-02-15T12:45:35;11.50;99.90
46652;DHT22;32377;52.182;5.398;2023-02-15T12:50:41;11.60;99.90
46652;DHT22;32377;52.182;5.398;2023-02-15T12:55:32;11.60;99.90
46652;DHT22;32377;52.182;5.398;2023-02-15T12:58:15;11.60;99.90
46652;DHT22;32377;52.182;5.398;2023-02-15T13:00:41;11.60;99.90
46652;DHT22;32377;52.182;5.398;2023-02-15T13:03:19;11.70;99.90
46652;DHT22;32377;52.182;5.398;2023-02-15T13:05:49;11.60;99.90
46652;DHT22;32377;52.182;5.398;2023-02-15T13:08:21;11.50;99.90
46652;DHT22;32377;52.182;5.398;2023-02-15T13:11:09;11.50;99.90
46652;DHT22;32377;52.182;5.398;2023-02-15T13:16:23;11.40;99.90
46652;DHT22;32377;52.182;5.398;2023-02-15T13:18:51;11.40;99.90
46652;DHT22;32377;52.182;5.398;2023-02-15T13:21:35;11.40;99.90
46652;DHT22;32377;52.182;5.398;2023-02-15T13:24:15;11.30;99.90
46652;DHT22;32377;52.182;5.398;2023-02-15T13:26:43;11.30;99.90
46652;DHT22;32377;52.182;5.398;2023-02-15T13:29:27;11.40;99.90
46652;DHT22;32377;52.182;5.398;2023-02-15T13:31:54;11.40;99.90
46652;DHT22;32377;52.182;5.398;2023-02-15T13:34:36;11.50;99.90
46652;DHT22;32377;52.182;5.398;2023-02-15T13:40:15;11.70;99.90
46652;DHT22;32377;52.182;5.398;2023-02-15T13:43:00;11.80;99.90
46652;DHT22;32377;52.182;5.398;2023-02-15T13:45:33;11.80;99.90
46652;DHT22;32377;52.182;5.398;2023-02-15T13:56:46;11.80;99.90
46652;DHT22;32377;52.182;5.398;2023-02-15T14:07:53;11.70;99.90
46652;DHT22;32377;52.182;5.398;2023-02-15T14:18:35;11.60;99.90
46652;DHT22;32377;52.182;5.398;2023-02-15T14:21:08;11.60;99.90
46652;DHT22;32377;52.182;5.398;2023-02-15T14:23:57;11.60;99.90
46652;DHT22;32377;52.182;5.398;2023-02-15T14:26:40;11.60;99.90
46652;DHT22;32377;52.182;5.398;2023-02-15T14:32:33;11.50;99.90
46652;DHT22;32377;52.182;5.398;2023-02-15T14:35:04;11.50;99.90
46652;DHT22;32377;52.182;5.398;2023-02-15T14:41:09;11.40;99.90
46652;DHT22;32377;52.182;5.398;2023-02-15T14:46:34;11.40;99.90
46652;DHT22;32377;52.182;5.398;2023-02-15T14:49:13;11.40;99.90
46652;DHT22;32377;52.182;5.398;2023-02-15T15:04:38;11.30;99.90
46652;DHT22;32377;52.182;5.398;2023-02-15T15:07:46;11.30;99.90
46652;DHT22;32377;52.182;5.398;2023-02-15T15:12:49;11.10;99.90
46652;DHT22;32377;52.182;5.398;2023-02-15T15:18:10;11.10;99.90
46652;DHT22;32377;52.182;5.398;2023-02-15T15:20:55;11.00;99.90
46652;DHT22;32377;52.182;5.398;2023-02-15T15:23:42;11.00;99.90
46652;DHT22;32377;52.182;5.398;2023-02-15T15:39:49;10.80;99.90
46652;DHT22;32377;52.182;5.398;2023-02-15T15:48:19;10.60;99.90
46652;DHT22;32377;52.182;5.398;2023-02-15T15:50:52;10.60;99.90
46652;DHT22;32377;52.182;5.398;2023-02-15T15:53:24;10.50;99.90
46652;DHT22;32377;52.182;5.398;2023-02-15T15:55:54;10.50;99.90
46652;DHT22;32377;52.182;5.398;2023-02-15T15:58:21;10.50;99.90
46652;DHT22;32377;52.182;5.398;2023-02-15T16:00:51;10.40;99.90
46652;DHT22;32377;52.182;5.398;2023-02-15T16:03:28;10.40;99.90
46652;DHT22;32377;52.182;5.398;2023-02-15T16:05:54;10.30;99.90
46652;DHT22;32377;52.182;5.398;2023-02-15T16:08:31;10.30;99.90
46652;DHT22;32377;52.182;5.398;2023-02-15T16:10:58;10.20;99.90
46652;DHT22;32377;52.182;5.398;2023-02-15T16:13:24;10.20;99.90
46652;DHT22;32377;52.182;5.398;2023-02-15T16:15:53;10.20;99.90
46652;DHT22;32377;52.182;5.398;2023-02-15T16:18:23;10.10;99.90
46652;DHT22;32377;52.182;5.398;2023-02-15T16:20:57;10.10;99.90
46652;DHT22;32377;52.182;5.398;2023-02-15T16:28:50;9.90;99.90
46652;DHT22;32377;52.182;5.398;2023-02-15T16:31:17;9.80;99.90
46652;DHT22;32377;52.182;5.398;2023-02-15T16:33:43;9.80;99.90
46652;DHT22;32377;52.182;5.398;2023-02-15T16:36:30;9.70;99.90
46652;DHT22;32377;52.182;5.398;2023-02-15T16:41:24;9.60;99.90
46652;DHT22;32377;52.182;5.398;2023-02-15T16:43:52;9.60;99.90
46652;DHT22;32377;52.182;5.398;2023-02-15T16:46:25;9.50;99.90
46652;DHT22;32377;52.182;5.398;2023-02-15T16:48:55;9.40;99.90
46652;DHT22;32377;52.182;5.398;2023-02-15T16:51:24;9.40;99.90
46652;DHT22;32377;52.182;5.398;2023-02-15T16:53:52;9.30;99.90
46652;DHT22;32377;52.182;5.398;2023-02-15T16:59:38;9.20;99.90
46652;DHT22;32377;52.182;5.398;2023-02-15T17:02:05;9.10;99.90
46652;DHT22;32377;52.182;5.398;2023-02-15T17:04:32;9.00;99.90
46652;DHT22;32377;52.182;5.398;2023-02-15T17:07:06;9.00;99.90
46652;DHT22;32377;52.182;5.398;2023-02-15T17:09:32;9.00;99.90
46652;DHT22;32377;52.182;5.398;2023-02-15T17:11:58;8.90;99.90
46652;DHT22;32377;52.182;5.398;2023-02-15T17:14:31;8.80;99.90
46652;DHT22;32377;52.182;5.398;2023-02-15T17:17:12;8.80;99.90
46652;DHT22;32377;52.182;5.398;2023-02-15T17:22:22;8.70;99.90
46652;DHT22;32377;52.182;5.398;2023-02-15T17:24:50;8.60;99.90
46652;DHT22;32377;52.182;5.398;2023-02-15T17:27:25;8.60;99.90
46652;DHT22;32377;52.182;5.398;2023-02-15T17:29:56;8.50;99.90
46652;DHT22;32377;52.182;5.398;2023-02-15T17:32:24;8.50;99.90
46652;DHT22;32377;52.182;5.398;2023-02-15T17:37:45;8.50;99.90
46652;DHT22;32377;52.182;5.398;2023-02-15T17:42:43;8.40;99.90
46652;DHT22;32377;52.182;5.398;2023-02-15T17:45:09;8.40;99.90
46652;DHT22;32377;52.182;5.398;2023-02-15T17:47:34;8.40;99.90
46652;DHT22;32377;52.182;5.398;2023-02-15T17:50:05;8.30;99.90
46652;DHT22;32377;52.182;5.398;2023-02-15T17:52:31;8.30;99.90
46652;DHT22;32377;52.182;5.398;2023-02-15T17:54:57;8.30;99.90
46652;DHT22;32377;52.182;5.398;2023-02-15T17:57:41;8.30;99.90
46652;DHT22;32377;52.182;5.398;2023-02-15T18:00:07;8.30;99.90
46652;DHT22;32377;52.182;5.398;2023-02-15T18:02:52;8.30;99.90
46652;DHT22;32377;52.182;5.398;2023-02-15T18:05:36;8.30;99.90
46652;DHT22;32377;52.182;5.398;2023-02-15T18:08:25;8.30;99.90
46652;DHT22;32377;52.182;5.398;2023-02-15T18:11:10;8.30;99.90
46652;DHT22;32377;52.182;5.398;2023-02-15T18:13:54;8.30;99.90
46652;DHT22;32377;52.182;5.398;2023-02-15T18:16:24;8.30;99.90
46652;DHT22;32377;52.182;5.398;2023-02-15T18:18:54;8.30;99.90
46652;DHT22;32377;52.182;5.398;2023-02-15T18:21:21;8.30;99.90
46652;DHT22;32377;52.182;5.398;2023-02-15T18:23:47;8.20;99.90
46652;DHT22;32377;52.182;5.398;2023-02-15T18:26:21;8.20;99.90
46652;DHT22;32377;52.182;5.398;2023-02-15T18:28:47;8.10;99.90
46652;DHT22;32377;52.182;5.398;2023-02-15T18:31:14;8.10;99.90
46652;DHT22;32377;52.182;5.398;2023-02-15T18:33:56;8.00;99.90
46652;DHT22;32377;52.182;5.398;2023-02-15T18:36:26;8.00;99.90
46652;DHT22;32377;52.182;5.398;2023-02-15T18:38:53;8.00;99.90
46652;DHT22;32377;52.182;5.398;2023-02-15T18:41:20;8.00;99.90
46652;DHT22;32377;52.182;5.398;2023-02-15T18:43:46;8.00;99.90
46652;DHT22;32377;52.182;5.398;2023-02-15T18:46:13;7.90;99.90
46652;DHT22;32377;52.182;5.398;2023-02-15T18:48:39;7.90;99.90
46652;DHT22;32377;52.182;5.398;2023-02-15T18:51:16;7.80;99.90
46652;DHT22;32377;52.182;5.398;2023-02-15T18:53:43;7.80;99.90
46652;DHT22;32377;52.182;5.398;2023-02-15T18:56:15;7.80;99.90
46652;DHT22;32377;52.182;5.398;2023-02-15T18:58:41;7.80;99.90
46652;DHT22;32377;52.182;5.398;2023-02-15T19:01:18;7.70;99.90
46652;DHT22;32377;52.182;5.398;2023-02-15T19:03:46;7.80;99.90
46652;DHT22;32377;52.182;5.398;2023-02-15T19:06:14;7.70;99.90
46652;DHT22;32377;52.182;5.398;2023-02-15T19:08:41;7.70;99.90
46652;DHT22;32377;52.182;5.398;2023-02-15T19:11:16;7.90;99.90
46652;DHT22;32377;52.182;5.398;2023-02-15T19:13:44;7.80;99.90
46652;DHT22;32377;52.182;5.398;2023-02-15T19:16:25;7.80;99.90